createdAt,value
2018-02-21T00:02:22.841Z,38.47
2018-02-21T00:04:49.746Z,41.45
2018-02-21T00:07:16.314Z,38.72
2018-02-21T00:09:42.894Z,38.13
2018-02-21T00:12:09.802Z,37.15
2018-02-21T00:14:36.366Z,39.17
2018-02-21T00:17:02.953Z,36.90
2018-02-21T00:19:29.485Z,37.67
2018-02-21T00:21:56.458Z,36.95
2018-02-21T00:24:23.022Z,38.30
2018-02-21T00:26:49.554Z,37.30
2018-02-21T00:29:16.125Z,37.63
2018-02-21T00:31:42.704Z,36.63
2018-02-21T00:34:09.238Z,36.88
2018-02-21T00:36:35.806Z,36.30
2018-02-21T00:39:02.453Z,37.25
2018-02-21T00:41:28.991Z,36.92
2018-02-21T00:43:55.595Z,33.00
2018-02-21T00:46:22.170Z,35.08
2018-02-21T00:48:48.705Z,35.67
2018-02-21T00:51:22.294Z,37.75
2018-02-21T00:53:48.861Z,37.03
2018-02-21T00:56:15.405Z,40.58
2018-02-21T00:58:41.968Z,36.83
2018-02-21T01:01:08.533Z,35.00
2018-02-21T01:03:35.067Z,36.33
2018-02-21T01:06:01.640Z,38.08
2018-02-21T01:08:28.248Z,37.25
2018-02-21T01:10:54.789Z,37.35
2018-02-21T01:13:21.355Z,32.92
2018-02-21T01:15:47.918Z,36.20
2018-02-21T01:18:14.455Z,36.13
2018-02-21T01:20:41.026Z,34.15
2018-02-21T01:23:07.639Z,34.70
2018-02-21T01:25:34.217Z,34.05
2018-02-21T01:28:00.793Z,35.50
2018-02-21T01:30:27.734Z,34.53
2018-02-21T01:32:54.650Z,35.17
2018-02-21T01:35:21.214Z,34.90
2018-02-21T01:37:47.785Z,33.80
2018-02-21T01:40:14.694Z,32.40
2018-02-21T01:42:41.261Z,34.53
2018-02-21T01:45:07.832Z,33.78
2018-02-21T01:47:34.365Z,33.80
2018-02-21T01:50:00.925Z,35.75
2018-02-21T01:52:27.489Z,34.85
2018-02-21T01:54:54.398Z,38.20
2018-02-21T01:57:20.965Z,36.28
2018-02-21T01:59:47.535Z,39.50
2018-02-21T02:02:14.444Z,37.83
2018-02-21T02:04:41.007Z,36.90
2018-02-21T02:07:07.586Z,39.13
2018-02-21T02:09:34.489Z,35.38
2018-02-21T02:12:02.058Z,38.05
2018-02-21T02:14:28.626Z,34.53
2018-02-21T02:16:55.190Z,36.00
2018-02-21T02:19:21.773Z,38.22
2018-02-21T02:21:48.334Z,36.55
2018-02-21T02:24:14.907Z,39.08
2018-02-21T02:26:41.475Z,38.13
2018-02-21T02:29:08.042Z,39.53
2018-02-21T02:31:34.948Z,36.85
2018-02-21T02:34:01.508Z,38.10
2018-02-21T02:36:28.079Z,37.72
2018-02-21T02:39:07.225Z,35.17
2018-02-21T02:41:33.786Z,39.05
2018-02-21T02:44:00.681Z,37.92
2018-02-21T02:46:27.242Z,38.03
2018-02-21T02:48:53.806Z,37.30
2018-02-21T02:51:20.344Z,38.67
2018-02-21T02:53:46.921Z,39.35
2018-02-21T02:56:13.490Z,39.35
2018-02-21T02:58:40.027Z,35.80
2018-02-21T03:01:06.974Z,37.15
2018-02-21T03:03:33.986Z,38.80
2018-02-21T03:06:00.518Z,38.58
2018-02-21T03:08:27.077Z,40.12
2018-02-21T03:10:53.640Z,38.72
2018-02-21T03:13:20.179Z,35.28
2018-02-21T03:15:46.766Z,37.33
2018-02-21T03:18:13.329Z,37.70
2018-02-21T03:20:40.225Z,35.90
2018-02-21T03:23:06.822Z,38.40
2018-02-21T03:25:33.401Z,36.13
2018-02-21T03:27:59.934Z,38.47
2018-02-21T03:30:26.489Z,38.08
2018-02-21T03:32:53.049Z,39.58
2018-02-21T03:35:19.583Z,39.22
2018-02-21T03:37:46.154Z,36.85
2018-02-21T03:40:12.726Z,36.60
2018-02-21T03:42:39.663Z,38.78
2018-02-21T03:45:06.228Z,36.45
2018-02-21T03:47:32.798Z,37.33
2018-02-21T03:49:59.698Z,36.97
2018-02-21T03:52:26.261Z,36.95
2018-02-21T03:54:52.838Z,37.60
2018-02-21T03:57:19.378Z,36.47
2018-02-21T03:59:45.942Z,36.20
2018-02-21T04:02:12.501Z,38.95
2018-02-21T04:04:39.409Z,36.20
2018-02-21T04:07:05.982Z,35.63
2018-02-21T04:09:32.550Z,34.17
2018-02-21T04:11:59.445Z,33.75
2018-02-21T04:14:26.005Z,33.42
2018-02-21T04:16:52.562Z,31.33
2018-02-21T04:19:19.106Z,32.05
2018-02-21T04:21:45.669Z,31.62
2018-02-21T04:24:12.269Z,34.03
2018-02-21T04:26:38.806Z,31.33
2018-02-21T04:29:05.473Z,28.38
2018-02-21T04:31:32.149Z,30.10
2018-02-21T04:33:58.685Z,31.90
2018-02-21T04:36:25.250Z,30.30
2018-02-21T04:38:51.819Z,31.40
2018-02-21T04:41:18.398Z,28.98
2018-02-21T04:43:44.961Z,28.30
2018-02-21T04:46:11.521Z,30.02
2018-02-21T04:48:38.061Z,29.23
2018-02-21T04:51:04.617Z,26.55
2018-02-21T04:53:31.234Z,28.15
2018-02-21T04:56:03.806Z,28.73
2018-02-21T05:01:36.168Z,29.20
2018-02-21T05:04:02.749Z,27.33
2018-02-21T05:06:29.346Z,28.98
2018-02-21T05:08:55.869Z,29.80
2018-02-21T05:11:22.802Z,27.23
2018-02-21T05:13:49.382Z,28.62
2018-02-21T05:16:15.924Z,28.85
2018-02-21T05:18:42.865Z,26.00
2018-02-21T05:21:09.822Z,27.52
2018-02-21T05:23:36.826Z,27.15
2018-02-21T05:26:03.394Z,28.45
2018-02-21T05:28:29.994Z,29.77
2018-02-21T05:30:56.899Z,28.45
2018-02-21T05:33:23.473Z,28.25
2018-02-21T05:35:50.138Z,26.50
2018-02-21T05:38:17.047Z,27.20
2018-02-21T05:40:43.603Z,26.95
2018-02-21T05:43:10.200Z,26.87
2018-02-21T05:45:36.729Z,26.92
2018-02-21T05:48:03.662Z,28.23
2018-02-21T05:50:30.234Z,29.33
2018-02-21T05:52:57.142Z,29.12
2018-02-21T05:55:23.706Z,29.02
2018-02-21T05:57:50.321Z,29.30
2018-02-21T06:00:16.882Z,29.73
2018-02-21T06:02:43.453Z,28.90
2018-02-21T06:05:10.074Z,27.92
2018-02-21T06:07:36.593Z,32.60
2018-02-21T06:10:03.173Z,36.03
2018-02-21T06:12:29.737Z,34.10
2018-02-21T06:14:56.261Z,35.28
2018-02-21T06:17:22.899Z,36.42
2018-02-21T06:19:49.465Z,39.45
2018-02-21T06:22:16.012Z,36.72
2018-02-21T06:24:42.613Z,37.60
2018-02-21T06:27:09.570Z,37.88
2018-02-21T06:29:36.489Z,40.53
2018-02-21T06:32:03.078Z,39.45
2018-02-21T06:34:30.022Z,36.50
2018-02-21T06:36:56.921Z,39.70
2018-02-21T06:39:23.481Z,38.35
2018-02-21T06:41:50.051Z,39.67
2018-02-21T06:44:16.594Z,41.42
2018-02-21T06:46:43.202Z,42.50
2018-02-21T06:49:09.766Z,43.38
2018-02-21T06:51:36.306Z,43.95
2018-02-21T06:54:02.913Z,40.78
2018-02-21T06:56:29.854Z,42.28
2018-02-21T06:58:56.485Z,41.28
2018-02-21T07:01:23.058Z,41.90
2018-02-21T07:03:49.617Z,40.65
2018-02-21T07:06:16.518Z,42.83
2018-02-21T07:08:43.107Z,40.47
2018-02-21T07:11:09.733Z,39.63
2018-02-21T07:13:36.271Z,39.90
2018-02-21T07:16:02.837Z,42.90
2018-02-21T07:18:29.405Z,40.17
2018-02-21T07:20:56.306Z,40.78
2018-02-21T07:23:22.877Z,39.58
2018-02-21T07:25:49.477Z,37.40
2018-02-21T07:28:16.022Z,40.12
2018-02-21T07:30:42.585Z,39.00
2018-02-21T07:33:09.148Z,36.17
2018-02-21T07:35:35.682Z,35.42
2018-02-21T07:38:02.251Z,40.33
2018-02-21T07:40:28.825Z,39.67
2018-02-21T07:42:55.388Z,38.70
2018-02-21T07:45:22.357Z,39.20
2018-02-21T07:47:56.162Z,39.15
2018-02-21T07:50:22.737Z,36.63
2018-02-21T07:52:49.309Z,36.00
2018-02-21T07:55:15.833Z,39.00
2018-02-21T07:57:42.458Z,38.72
2018-02-21T08:00:09.398Z,38.30
2018-02-21T08:02:35.938Z,39.47
2018-02-21T08:05:02.603Z,35.58
2018-02-21T08:07:29.194Z,38.10
2018-02-21T08:09:55.734Z,39.42
2018-02-21T08:12:22.311Z,37.33
2018-02-21T08:14:48.874Z,38.55
2018-02-21T08:17:15.413Z,37.15
2018-02-21T08:19:41.990Z,38.78
2018-02-21T08:22:08.934Z,39.70
2018-02-21T08:24:35.502Z,39.97
2018-02-21T08:27:02.522Z,38.03
2018-02-21T08:29:29.099Z,37.63
2018-02-21T08:31:56.002Z,37.78
2018-02-21T08:34:22.569Z,36.75
2018-02-21T08:36:49.168Z,37.33
2018-02-21T08:39:15.706Z,36.78
2018-02-21T08:41:42.642Z,36.40
2018-02-21T08:44:09.218Z,34.78
2018-02-21T08:46:35.757Z,35.85
2018-02-21T08:49:02.718Z,37.95
2018-02-21T08:51:29.786Z,35.47
2018-02-21T08:53:56.321Z,34.85
2018-02-21T08:56:23.263Z,35.58
2018-02-21T08:58:50.220Z,36.03
2018-02-21T09:01:17.134Z,36.75
2018-02-21T09:03:43.701Z,41.55
2018-02-21T09:06:10.278Z,41.13
2018-02-21T09:08:37.178Z,37.03
2018-02-21T09:11:03.774Z,36.78
2018-02-21T09:13:30.718Z,36.60
2018-02-21T09:15:57.265Z,36.92
2018-02-21T09:18:23.830Z,40.22
2018-02-21T09:20:50.762Z,37.63
2018-02-21T09:23:17.312Z,37.58
2018-02-21T09:25:43.918Z,37.08
2018-02-21T09:28:10.476Z,39.30
2018-02-21T09:30:37.030Z,39.70
2018-02-21T09:33:04.624Z,36.70
2018-02-21T09:35:31.209Z,38.08
2018-02-21T09:37:57.797Z,37.65
2018-02-21T09:40:24.398Z,38.13
2018-02-21T09:42:51.353Z,36.88
2018-02-21T09:45:17.902Z,35.38
2018-02-21T09:47:44.855Z,39.13
2018-02-21T09:50:11.805Z,40.83
2018-02-21T09:52:38.714Z,41.37
2018-02-21T09:55:05.318Z,38.42
2018-02-21T09:57:32.260Z,37.78
2018-02-21T09:59:59.170Z,39.70
2018-02-21T10:02:25.767Z,39.45
2018-02-21T10:04:52.402Z,38.00
2018-02-21T10:07:18.941Z,41.85
2018-02-21T10:09:45.550Z,39.65
2018-02-21T10:12:12.109Z,40.67
2018-02-21T10:14:38.649Z,38.83
2018-02-21T10:17:05.274Z,39.70
2018-02-21T10:19:31.842Z,41.00
2018-02-21T10:21:58.397Z,38.55
2018-02-21T10:24:25.025Z,42.25
2018-02-21T10:26:51.610Z,40.45
2018-02-21T10:29:18.147Z,40.65
2018-02-21T10:31:44.709Z,40.12
2018-02-21T10:34:11.309Z,41.40
2018-02-21T10:36:37.849Z,40.72
2018-02-21T10:39:04.818Z,41.70
2018-02-21T10:41:31.416Z,39.65
2018-02-21T10:43:57.951Z,38.75
2018-02-21T10:46:24.518Z,37.40
2018-02-21T10:48:51.115Z,38.33
2018-02-21T10:51:17.658Z,37.70
2018-02-21T10:53:44.218Z,35.70
2018-02-21T10:56:10.792Z,37.63
2018-02-21T10:58:37.335Z,35.03
2018-02-21T11:01:09.902Z,38.38
2018-02-21T11:03:36.467Z,36.53
2018-02-21T11:06:03.103Z,36.40
2018-02-21T11:08:29.684Z,37.65
2018-02-21T11:10:56.258Z,39.10
2018-02-21T11:13:23.169Z,41.00
2018-02-21T11:15:49.738Z,41.63
2018-02-21T11:18:16.314Z,39.60
2018-02-21T11:20:43.210Z,38.42
2018-02-21T11:23:09.772Z,41.22
2018-02-21T11:25:36.378Z,42.50
2018-02-21T11:28:02.946Z,43.28
2018-02-21T11:30:29.515Z,40.85
2018-02-21T11:32:56.086Z,41.55
2018-02-21T11:35:22.613Z,39.20
2018-02-21T11:37:49.187Z,41.03
2018-02-21T11:40:15.753Z,43.38
2018-02-21T11:42:42.658Z,41.17
2018-02-21T11:45:09.241Z,39.75
2018-02-21T11:47:36.191Z,41.05
2018-02-21T11:50:03.115Z,42.40
2018-02-21T11:52:29.678Z,38.58
2018-02-21T11:54:56.240Z,41.70
2018-02-21T11:57:22.777Z,41.03
2018-02-21T11:59:49.353Z,39.22
2018-02-21T12:02:16.293Z,40.75
2018-02-21T12:04:42.833Z,39.83
2018-02-21T12:07:09.798Z,39.22
2018-02-21T12:09:36.738Z,41.40
2018-02-21T12:12:03.282Z,39.10
2018-02-21T12:14:29.905Z,39.63
2018-02-21T12:16:56.486Z,39.03
2018-02-21T12:19:23.453Z,38.10
2018-02-21T12:21:50.023Z,39.92
2018-02-21T12:24:16.594Z,39.10
2018-02-21T12:26:43.208Z,39.53
2018-02-21T12:29:10.190Z,37.45
2018-02-21T12:31:36.998Z,38.53
2018-02-21T12:34:03.600Z,36.28
2018-02-21T12:36:30.199Z,36.17
2018-02-21T12:39:03.301Z,38.15
2018-02-21T12:41:35.986Z,36.75
2018-02-21T12:44:02.561Z,37.90
2018-02-21T12:46:29.473Z,39.80
2018-02-21T12:48:56.059Z,39.17
2018-02-21T12:51:23.006Z,38.67
2018-02-21T12:53:49.538Z,38.55
2018-02-21T12:56:16.105Z,37.40
2018-02-21T12:58:43.109Z,38.03
2018-02-21T13:01:09.643Z,38.90
2018-02-21T13:03:36.210Z,39.88
2018-02-21T13:06:02.815Z,37.85
2018-02-21T13:08:29.362Z,38.47
2018-02-21T13:10:56.293Z,39.65
2018-02-21T13:13:23.128Z,41.70
2018-02-21T13:15:49.665Z,40.20
2018-02-21T13:18:16.247Z,40.25
2018-02-21T13:20:43.203Z,40.10
2018-02-21T13:23:09.738Z,33.33
2018-02-21T13:25:36.310Z,33.85
2018-02-21T13:28:03.254Z,34.83
2018-02-21T13:30:29.789Z,32.75
2018-02-21T13:32:56.429Z,36.50
2018-02-21T13:35:23.110Z,36.13
2018-02-21T13:40:44.670Z,37.00
2018-02-21T13:43:11.607Z,34.47
2018-02-21T13:45:38.183Z,37.03
2018-02-21T13:48:05.105Z,36.47
2018-02-21T13:50:31.725Z,35.90
2018-02-21T13:52:58.307Z,38.40
2018-02-21T13:55:24.865Z,38.65
2018-02-21T13:57:51.814Z,40.42
2018-02-21T14:00:18.383Z,36.50
2018-02-21T14:02:45.335Z,38.60
2018-02-21T14:05:12.302Z,36.25
2018-02-21T14:07:39.247Z,36.30
2018-02-21T14:10:05.781Z,38.38
2018-02-21T14:12:32.354Z,35.30
2018-02-21T14:14:59.292Z,36.60
2018-02-21T14:17:25.822Z,37.22
2018-02-21T14:19:52.398Z,37.05
2018-02-21T14:22:19.342Z,34.85
2018-02-21T14:24:45.870Z,38.53
2018-02-21T14:27:12.444Z,37.40
2018-02-21T14:29:39.389Z,37.17
2018-02-21T14:32:05.914Z,32.78
2018-02-21T14:34:32.483Z,36.00
2018-02-21T14:36:59.063Z,34.42
2018-02-21T14:39:25.646Z,36.17
2018-02-21T14:41:52.214Z,37.47
2018-02-21T14:44:18.785Z,37.35
2018-02-21T14:46:45.702Z,35.50
2018-02-21T14:49:12.273Z,36.10
2018-02-21T14:51:38.851Z,36.97
2018-02-21T14:54:05.390Z,36.45
2018-02-21T14:56:32.342Z,35.30
2018-02-21T14:58:59.278Z,36.47
2018-02-21T15:01:25.862Z,39.83
2018-02-21T15:03:52.805Z,38.10
2018-02-21T15:06:19.742Z,35.13
2018-02-21T15:08:46.283Z,33.00
2018-02-21T15:11:12.874Z,36.70
2018-02-21T15:13:46.426Z,37.97
2018-02-21T15:16:19.033Z,35.97
2018-02-21T15:18:45.614Z,36.88
2018-02-21T15:21:12.546Z,37.80
2018-02-21T15:23:42.990Z,37.30
2018-02-21T15:26:09.579Z,36.55
2018-02-21T15:28:36.115Z,37.30
2018-02-21T15:31:03.042Z,36.25
2018-02-21T15:33:29.614Z,33.80
2018-02-21T15:35:56.530Z,36.20
2018-02-21T15:38:23.136Z,36.65
2018-02-21T15:40:49.734Z,32.95
2018-02-21T15:43:16.279Z,35.05
2018-02-21T15:45:42.866Z,33.35
2018-02-21T15:48:09.477Z,33.92
2018-02-21T15:50:36.017Z,34.22
2018-02-21T15:53:02.594Z,34.75
2018-02-21T15:55:29.585Z,34.83
2018-02-21T15:57:56.126Z,35.13
2018-02-21T16:00:22.697Z,31.50
2018-02-21T16:02:49.270Z,35.60
2018-02-21T16:05:15.824Z,36.20
2018-02-21T16:07:42.434Z,37.22
2018-02-21T16:10:09.011Z,37.83
2018-02-21T16:12:35.546Z,36.08
2018-02-21T16:15:02.118Z,33.50
2018-02-21T16:17:28.694Z,36.75
2018-02-21T16:19:55.615Z,37.30
2018-02-21T16:22:22.198Z,36.10
2018-02-21T16:24:48.784Z,35.63
2018-02-21T16:27:15.334Z,38.15
2018-02-21T16:29:41.911Z,36.83
2018-02-21T16:32:08.478Z,37.63
2018-02-21T16:34:35.406Z,38.22
2018-02-21T16:37:02.018Z,39.38
2018-02-21T16:39:28.622Z,36.33
2018-02-21T16:41:55.160Z,35.95
2018-02-21T16:44:21.866Z,34.80
2018-02-21T16:46:48.466Z,31.20
2018-02-21T16:49:15.378Z,32.65
2018-02-21T16:51:41.990Z,36.13
2018-02-21T16:54:14.654Z,36.53
2018-02-21T16:56:41.389Z,37.95
2018-02-21T16:59:08.131Z,34.80
2018-02-21T17:01:34.788Z,34.30
2018-02-21T17:04:01.773Z,32.20
2018-02-21T17:06:28.718Z,38.47
2018-02-21T17:08:55.266Z,39.97
2018-02-21T17:11:21.851Z,34.38
2018-02-21T17:13:48.434Z,33.25
2018-02-21T17:16:15.117Z,31.58
2018-02-21T17:18:42.123Z,35.03
2018-02-21T17:21:08.733Z,37.45
2018-02-21T17:23:35.978Z,37.15
2018-02-21T17:26:02.997Z,34.10
2018-02-21T17:28:30.021Z,35.53
2018-02-21T17:30:56.932Z,37.63
2018-02-21T17:33:23.487Z,36.80
2018-02-21T17:35:50.126Z,38.40
2018-02-21T17:38:16.771Z,37.47
2018-02-21T17:40:49.513Z,38.92
2018-02-21T17:43:16.093Z,34.42
2018-02-21T17:45:42.614Z,36.20
2018-02-21T17:48:09.181Z,38.85
2018-02-21T17:50:35.759Z,38.58
2018-02-21T17:53:02.301Z,37.53
2018-02-21T17:55:28.865Z,33.38
2018-02-21T17:57:55.445Z,30.90
2018-02-21T18:00:22.346Z,36.15
2018-02-21T18:02:48.900Z,38.50
2018-02-21T18:05:15.457Z,37.30
2018-02-21T18:07:41.986Z,36.35
2018-02-21T18:10:08.816Z,35.95
2018-02-21T18:12:35.376Z,35.78
2018-02-21T18:15:01.954Z,36.75
2018-02-21T18:17:28.925Z,39.80
2018-02-21T18:19:55.642Z,38.10
2018-02-21T18:22:22.173Z,37.05
2018-02-21T18:24:48.783Z,36.75
2018-02-21T18:27:15.345Z,36.20
2018-02-21T18:29:42.244Z,35.30
2018-02-21T18:32:10.298Z,33.60
2018-02-21T18:34:36.888Z,32.60
2018-02-21T18:37:03.453Z,39.63
2018-02-21T18:39:30.459Z,35.15
2018-02-21T18:41:57.036Z,32.55
2018-02-21T18:44:23.585Z,32.88
2018-02-21T18:46:50.197Z,35.40
2018-02-21T18:49:16.769Z,32.15
2018-02-21T18:51:43.337Z,32.30
2018-02-21T18:54:10.307Z,33.50
2018-02-21T18:56:36.882Z,32.92
2018-02-21T18:59:03.834Z,36.60
2018-02-21T19:01:30.413Z,35.65
2018-02-21T19:03:56.978Z,32.15
2018-02-21T19:06:23.518Z,34.13
2018-02-21T19:08:50.078Z,36.75
2018-02-21T19:11:16.650Z,34.15
2018-02-21T19:13:43.600Z,35.63
2018-02-21T19:16:10.185Z,29.30
2018-02-21T19:18:36.753Z,33.55
2018-02-21T19:21:03.281Z,32.65
2018-02-21T19:23:29.854Z,34.17
2018-02-21T19:25:56.420Z,33.47
2018-02-21T19:28:22.949Z,31.27
2018-02-21T19:30:50.488Z,35.72
2018-02-21T19:33:17.937Z,34.63
2018-02-21T19:35:45.537Z,34.83
2018-02-21T19:38:19.240Z,33.55
2018-02-21T19:40:46.232Z,34.55
2018-02-21T19:43:12.786Z,36.92
2018-02-21T19:45:39.370Z,38.33
2018-02-21T19:48:05.929Z,42.28
2018-02-21T19:50:32.850Z,40.58
2018-02-21T19:52:59.429Z,40.00
2018-02-21T19:55:26.392Z,41.95
2018-02-21T19:57:52.946Z,42.17
2018-02-21T20:00:19.522Z,43.30
2018-02-21T20:02:46.112Z,41.50
2018-02-21T20:05:15.497Z,43.45
2018-02-21T20:07:42.121Z,39.40
2018-02-21T20:10:08.692Z,40.38
2018-02-21T20:12:35.249Z,38.53
2018-02-21T20:15:01.825Z,42.40
2018-02-21T20:17:28.765Z,37.05
2018-02-21T20:19:55.324Z,40.30
2018-02-21T20:22:21.946Z,37.53
2018-02-21T20:24:48.514Z,41.72
2018-02-21T20:27:15.045Z,34.72
2018-02-21T20:29:41.624Z,36.83
2018-02-21T20:32:08.560Z,35.72
2018-02-21T20:34:35.091Z,36.33
2018-02-21T20:37:01.685Z,42.72
2018-02-21T20:39:28.300Z,41.28
2018-02-21T20:41:54.834Z,37.95
2018-02-21T20:44:21.427Z,38.38
2018-02-21T20:46:48.031Z,35.85
2018-02-21T20:49:14.580Z,36.28
2018-02-21T20:51:42.394Z,37.97
2018-02-21T20:54:09.344Z,36.53
2018-02-21T20:56:35.877Z,37.42
2018-02-21T20:59:02.445Z,36.08
2018-02-21T21:01:29.394Z,33.25
2018-02-21T21:03:57.225Z,34.30
2018-02-21T21:06:23.803Z,35.47
2018-02-21T21:08:50.374Z,35.75
2018-02-21T21:11:17.311Z,36.75
2018-02-21T21:13:43.885Z,35.67
2018-02-21T21:16:10.838Z,38.25
2018-02-21T21:18:37.752Z,35.00
2018-02-21T21:21:04.321Z,34.08
2018-02-21T21:23:30.925Z,36.83
2018-02-21T21:25:57.489Z,33.88
2018-02-21T21:28:24.051Z,32.00
2018-02-21T21:30:50.626Z,33.75
2018-02-21T21:33:17.525Z,34.72
2018-02-21T21:35:44.182Z,34.50
2018-02-21T21:38:10.762Z,32.00
2018-02-21T21:40:37.333Z,35.05
2018-02-21T21:43:04.294Z,35.35
2018-02-21T21:45:30.903Z,32.60
2018-02-21T21:47:57.457Z,33.75
2018-02-21T21:50:24.405Z,31.80
2018-02-21T21:52:51.382Z,29.52
2018-02-21T21:55:18.294Z,32.75
2018-02-21T21:57:44.849Z,31.80
2018-02-21T22:00:11.405Z,32.38
2018-02-21T22:02:37.925Z,32.40
2018-02-21T22:05:04.489Z,31.45
2018-02-21T22:07:31.049Z,31.27
2018-02-21T22:09:57.574Z,32.80
2018-02-21T22:12:24.129Z,33.80
2018-02-21T22:14:50.689Z,33.78
2018-02-21T22:17:17.212Z,33.92
2018-02-21T22:19:43.770Z,35.97
2018-02-21T22:22:10.337Z,33.95
2018-02-21T22:24:36.857Z,34.65
2018-02-21T22:27:03.425Z,34.25
2018-02-21T22:29:30.025Z,35.30
2018-02-21T22:31:56.593Z,35.35
2018-02-21T22:34:23.145Z,34.58
2018-02-21T22:36:49.705Z,35.60
2018-02-21T22:39:16.309Z,34.38
2018-02-21T22:41:43.241Z,35.58
2018-02-21T22:44:09.848Z,36.75
2018-02-21T22:46:36.384Z,32.95
2018-02-21T22:49:02.945Z,34.47
2018-02-21T22:51:29.525Z,33.70
2018-02-21T22:53:56.057Z,33.78
2018-02-21T22:56:22.613Z,35.13
2018-02-21T22:58:49.170Z,34.75
2018-02-21T23:01:15.692Z,35.30
2018-02-21T23:03:42.250Z,36.15
2018-02-21T23:06:08.821Z,33.88
2018-02-21T23:08:35.340Z,36.25
2018-02-21T23:11:01.902Z,34.15
2018-02-21T23:13:28.460Z,37.70
2018-02-21T23:15:54.997Z,34.17
2018-02-21T23:18:21.556Z,33.25
2018-02-21T23:20:48.497Z,34.15
2018-02-21T23:23:15.029Z,33.60
2018-02-21T23:25:41.596Z,33.10
2018-02-21T23:28:08.149Z,33.22
2018-02-21T23:30:41.853Z,32.78
2018-02-21T23:33:08.469Z,33.97
2018-02-21T23:35:34.985Z,33.60
2018-02-21T23:38:01.553Z,32.80
2018-02-21T23:40:28.138Z,32.47
2018-02-21T23:42:54.696Z,32.38
2018-02-21T23:45:21.266Z,33.10
2018-02-21T23:47:48.198Z,33.72
2018-02-21T23:50:14.728Z,30.33
2018-02-21T23:52:41.289Z,32.08
2018-02-21T23:55:07.857Z,31.33
2018-02-21T23:57:34.749Z,32.92
